Time;durP1;ratioP1;P1;durP2;ratioP2;P2;SDS_P1;SDS_P2;PMS_P1;PMS_P2;Temp;Humidity;BMP_temperature;BMP_pressure;BME280_temperature;BME280_humidity;BME280_pressure;Samples;Min_cycle;Max_cycle;Signal;HPM_P1;HPM_P2
2022/06/04 00:01:47;;;;;;;9.37;8.57;;;20.30;80.70;;;;;;4971718;28;20466;-46
2022/06/04 00:04:15;;;;;;;9.20;8.47;;;20.30;80.80;;;;;;4966334;28;20462;-46
2022/06/04 00:06:43;;;;;;;9.47;8.60;;;20.20;80.80;;;;;;4966386;28;20910;-46
2022/06/04 00:09:12;;;;;;;9.80;8.87;;;20.20;80.90;;;;;;4968232;28;20511;-46
2022/06/04 00:17:25;;;;;;;9.90;9.00;;;20.10;81.00;;;;;;4914281;28;20490;-46
2022/06/04 00:19:53;;;;;;;10.13;9.23;;;20.00;81.10;;;;;;4966876;28;20576;-46
2022/06/04 00:22:19;;;;;;;10.67;9.67;;;20.00;81.00;;;;;;4963836;28;20484;-46
2022/06/04 00:24:46;;;;;;;11.13;9.27;;;20.00;81.10;;;;;;4968853;28;20963;-46
2022/06/04 00:27:19;;;;;;;11.53;10.50;;;19.90;81.10;;;;;;4969309;28;20537;-46
2022/06/04 00:29:47;;;;;;;12.07;10.97;;;19.90;81.10;;;;;;4952705;28;20461;-46
2022/06/04 00:32:14;;;;;;;13.30;12.13;;;19.90;81.20;;;;;;4969024;28;20993;-46
2022/06/04 00:34:41;;;;;;;14.73;12.87;;;19.80;81.20;;;;;;4970108;28;20475;-46
2022/06/04 00:37:08;;;;;;;11.73;10.63;;;19.80;81.40;;;;;;4969426;28;20457;-46
2022/06/04 00:39:35;;;;;;;11.10;10.00;;;19.80;81.50;;;;;;4952094;28;20530;-46
2022/06/04 00:42:05;;;;;;;12.30;9.87;;;19.80;81.40;;;;;;4951825;28;20450;-46
2022/06/04 00:44:32;;;;;;;11.97;10.93;;;19.70;81.40;;;;;;4968946;28;21165;-46
2022/06/04 00:47:27;;;;;;;12.10;11.00;;;19.70;81.40;;;;;;4952904;28;21241;-46
2022/06/04 00:49:54;;;;;;;11.97;10.77;;;19.60;81.60;;;;;;4966039;28;20545;-46
2022/06/04 00:52:21;;;;;;;11.83;10.60;;;19.60;81.70;;;;;;4969222;28;20464;-46
2022/06/04 00:54:52;;;;;;;13.30;10.83;;;19.60;81.80;;;;;;4951256;28;20462;-46
2022/06/04 00:57:45;;;;;;;12.43;11.10;;;19.50;81.80;;;;;;4933941;28;20473;-46
2022/06/04 01:00:33;;;;;;;12.70;10.80;;;19.50;81.90;;;;;;4968995;28;20470;-46
2022/06/04 01:03:03;;;;;;;12.60;11.30;;;19.40;81.90;;;;;;4968628;28;20489;-46
2022/06/04 01:05:36;;;;;;;12.00;10.90;;;19.40;82.00;;;;;;4969199;28;20504;-46
2022/06/04 01:08:22;;;;;;;15.43;11.00;;;19.40;81.90;;;;;;4952281;28;20549;-46
2022/06/04 01:11:07;;;;;;;12.17;10.50;;;19.40;81.60;;;;;;4968355;28;20470;-46
2022/06/04 01:13:59;;;;;;;12.00;10.70;;;19.40;81.70;;;;;;4948977;28;20470;-46
2022/06/04 01:16:52;;;;;;;12.37;11.00;;;19.30;81.70;;;;;;4959406;28;20480;-46
2022/06/04 01:19:27;;;;;;;12.40;11.20;;;19.30;81.60;;;;;;4950633;28;20509;-46
2022/06/04 01:22:26;;;;;;;13.73;12.37;;;19.30;81.50;;;;;;4950999;28;20476;-46
2022/06/04 01:24:59;;;;;;;12.37;11.17;;;19.20;81.60;;;;;;4926956;28;20466;-46
2022/06/04 01:27:49;;;;;;;13.10;11.80;;;19.20;81.60;;;;;;4950922;28;20683;-46
2022/06/04 01:30:21;;;;;;;12.27;11.00;;;19.20;81.60;;;;;;4967847;28;21644;-46
2022/06/04 01:33:07;;;;;;;11.00;9.90;;;19.20;81.50;;;;;;4969124;28;20533;-46
2022/06/04 01:35:46;;;;;;;13.53;11.73;;;19.20;81.20;;;;;;4968142;28;20470;-46
2022/06/04 01:38:30;;;;;;;11.97;10.73;;;19.10;81.00;;;;;;4967959;28;20925;-46
2022/06/04 01:41:15;;;;;;;11.77;10.53;;;19.00;80.90;;;;;;4967540;28;20549;-46
2022/06/04 01:43:56;;;;;;;12.20;11.10;;;19.00;80.80;;;;;;4967566;28;20546;-46
2022/06/04 01:46:22;;;;;;;13.33;12.03;;;19.00;80.70;;;;;;4966619;28;20541;-46
2022/06/04 01:48:56;;;;;;;13.10;11.70;;;19.00;80.70;;;;;;4950738;28;20469;-46
2022/06/04 01:51:25;;;;;;;14.27;12.87;;;18.90;80.90;;;;;;4966411;28;20468;-46
2022/06/04 01:53:59;;;;;;;13.60;12.30;;;18.80;81.20;;;;;;4966216;28;20485;-46
2022/06/04 01:56:31;;;;;;;15.53;13.40;;;18.80;81.40;;;;;;4967312;28;20468;-46
2022/06/04 01:59:05;;;;;;;14.43;12.63;;;18.70;81.60;;;;;;4953384;28;20948;-46
2022/06/04 02:01:33;;;;;;;12.97;11.67;;;18.70;81.80;;;;;;4966359;28;20509;-46
2022/06/04 02:04:13;;;;;;;14.07;12.77;;;18.70;81.90;;;;;;4967984;28;20576;-46
2022/06/04 02:06:45;;;;;;;15.03;11.70;;;18.70;82.00;;;;;;4964708;28;20469;-46
2022/06/04 02:09:15;;;;;;;13.63;12.23;;;18.60;82.20;;;;;;4949182;28;20458;-46
2022/06/04 02:11:51;;;;;;;13.20;11.80;;;18.60;82.20;;;;;;4934652;28;20465;-46
2022/06/04 02:14:19;;;;;;;14.07;12.57;;;18.60;82.40;;;;;;4966207;28;20457;-46
2022/06/04 02:16:51;;;;;;;15.53;13.90;;;18.60;82.30;;;;;;4947435;28;20973;-46
2022/06/04 02:19:18;;;;;;;14.60;13.13;;;18.60;82.40;;;;;;4965978;28;20868;-46
2022/06/04 02:21:49;;;;;;;16.83;13.13;;;18.60;82.40;;;;;;4948947;28;20470;-45
2022/06/04 02:24:16;;;;;;;15.43;13.87;;;18.60;82.50;;;;;;4965234;28;20455;-42
2022/06/04 02:26:43;;;;;;;15.07;13.57;;;18.60;82.50;;;;;;4963882;28;20461;-42
2022/06/04 02:29:10;;;;;;;14.93;13.40;;;18.60;82.50;;;;;;4949077;28;20566;-42
2022/06/04 02:31:48;;;;;;;17.90;14.33;;;18.60;82.60;;;;;;4963998;28;20458;-42
2022/06/04 02:34:23;;;;;;;16.17;13.47;;;18.60;82.60;;;;;;4948246;28;20828;-42
2022/06/04 02:37:47;;;;;;;15.70;14.10;;;18.60;82.40;;;;;;4965601;28;20469;-42
2022/06/04 02:40:22;;;;;;;15.73;13.30;;;18.60;82.20;;;;;;4900532;29;20575;-46
2022/06/04 02:43:12;;;;;;;15.20;13.70;;;18.50;82.20;;;;;;4899795;29;20467;-46
2022/06/04 02:45:50;;;;;;;13.93;12.53;;;18.40;82.40;;;;;;4953944;28;20913;-46
2022/06/04 02:48:39;;;;;;;15.70;14.10;;;18.40;82.50;;;;;;4946406;28;20472;-46
2022/06/04 02:51:13;;;;;;;15.27;13.17;;;18.40;82.40;;;;;;4944815;28;20474;-46
2022/06/04 02:53:41;;;;;;;15.03;13.40;;;18.40;82.40;;;;;;4964862;28;20468;-46
2022/06/04 02:56:13;;;;;;;16.73;13.80;;;18.40;82.40;;;;;;4967597;28;20462;-46
2022/06/04 02:58:42;;;;;;;15.10;13.50;;;18.30;82.40;;;;;;4968147;28;21017;-46
2022/06/04 03:01:11;;;;;;;14.03;12.63;;;18.30;82.40;;;;;;4962814;28;20490;-46
2022/06/04 03:03:38;;;;;;;13.10;11.90;;;18.30;82.40;;;;;;4969459;28;20465;-46
2022/06/04 03:06:08;;;;;;;13.93;12.13;;;18.20;82.40;;;;;;4968174;28;20462;-46
2022/06/04 03:08:41;;;;;;;15.13;13.00;;;18.20;82.40;;;;;;4952408;28;20883;-46
2022/06/04 03:11:07;;;;;;;15.50;12.87;;;18.20;82.50;;;;;;4954478;28;20447;-46
2022/06/04 03:13:34;;;;;;;15.20;13.60;;;18.20;82.50;;;;;;4970959;28;20890;-46
2022/06/04 03:16:01;;;;;;;15.90;14.37;;;18.20;82.50;;;;;;4969829;28;20476;-46
2022/06/04 03:18:28;;;;;;;14.83;13.33;;;18.20;82.40;;;;;;4969540;28;20497;-46
2022/06/04 03:20:54;;;;;;;14.60;13.03;;;18.10;82.50;;;;;;4951966;28;20468;-46
2022/06/04 03:23:21;;;;;;;14.33;12.83;;;18.10;82.50;;;;;;4971273;28;20992;-46
2022/06/04 03:25:48;;;;;;;14.67;13.17;;;18.10;82.60;;;;;;4953698;28;20486;-46
2022/06/04 03:28:15;;;;;;;16.43;14.70;;;18.10;82.70;;;;;;4954551;28;21085;-46
2022/06/04 03:30:42;;;;;;;15.53;13.93;;;18.10;82.80;;;;;;4952677;28;20469;-46
2022/06/04 03:33:09;;;;;;;16.27;14.47;;;18.10;82.90;;;;;;4952938;28;20466;-46
2022/06/04 03:35:35;;;;;;;16.03;14.23;;;18.10;83.00;;;;;;4953615;28;20466;-46
2022/06/04 03:38:03;;;;;;;15.63;13.90;;;18.10;83.10;;;;;;4965863;28;20450;-46
2022/06/04 03:40:30;;;;;;;16.43;14.80;;;18.10;83.10;;;;;;4936676;28;20469;-46
2022/06/04 03:42:57;;;;;;;15.50;13.90;;;18.10;83.10;;;;;;4966532;28;20465;-46
2022/06/04 03:45:26;;;;;;;19.00;15.20;;;18.10;83.30;;;;;;4964406;28;20975;-46
2022/06/04 03:47:54;;;;;;;19.70;14.13;;;18.10;83.30;;;;;;4970389;28;20454;-46
2022/06/04 03:50:23;;;;;;;17.23;14.00;;;18.10;83.30;;;;;;4968516;28;20475;-46
2022/06/04 03:52:50;;;;;;;17.13;15.30;;;18.10;83.40;;;;;;4964666;28;20477;-46
2022/06/04 03:55:18;;;;;;;17.10;15.30;;;18.00;83.40;;;;;;4934538;28;20466;-46
2022/06/04 03:57:52;;;;;;;16.40;14.27;;;18.00;83.40;;;;;;4967012;28;20470;-46
2022/06/04 04:00:27;;;;;;;19.23;16.03;;;18.00;83.30;;;;;;4965542;28;20500;-47
2022/06/04 04:02:57;;;;;;;18.83;15.10;;;18.00;83.30;;;;;;4968333;28;20596;-46
2022/06/04 04:05:33;;;;;;;15.33;13.53;;;18.00;83.20;;;;;;4965756;28;20485;-46
2022/06/04 04:08:01;;;;;;;16.70;14.90;;;18.00;83.20;;;;;;4965039;28;20548;-46
2022/06/04 04:10:30;;;;;;;17.40;13.93;;;18.00;83.10;;;;;;4968155;28;20462;-46
2022/06/04 04:12:57;;;;;;;18.20;14.90;;;18.10;83.00;;;;;;4935129;28;20468;-46
2022/06/04 04:15:25;;;;;;;16.83;14.93;;;18.10;83.00;;;;;;4967723;28;20884;-46
2022/06/04 04:17:52;;;;;;;15.47;13.97;;;18.10;83.00;;;;;;4968800;28;20472;-46
2022/06/04 04:20:25;;;;;;;16.50;14.90;;;18.10;83.10;;;;;;4951883;28;20504;-46
2022/06/04 04:22:54;;;;;;;15.50;13.90;;;18.10;83.20;;;;;;4948284;28;20458;-46
2022/06/04 04:25:23;;;;;;;17.30;15.60;;;18.10;83.20;;;;;;4966669;28;20464;-46
2022/06/04 04:27:50;;;;;;;15.40;13.80;;;18.10;83.30;;;;;;4968920;28;20458;-46
2022/06/04 04:30:22;;;;;;;15.40;13.80;;;18.10;83.50;;;;;;4968563;28;20963;-46
2022/06/04 04:32:50;;;;;;;15.40;13.93;;;18.10;83.60;;;;;;4969853;28;20458;-46
2022/06/04 04:35:21;;;;;;;15.83;14.13;;;18.20;83.70;;;;;;4951627;28;20524;-46
2022/06/04 04:37:48;;;;;;;16.73;15.13;;;18.20;83.60;;;;;;4949452;28;21770;-46
2022/06/04 04:40:17;;;;;;;17.10;15.30;;;18.20;83.20;;;;;;4968783;28;20629;-46
2022/06/04 04:42:45;;;;;;;17.90;15.47;;;18.30;82.90;;;;;;4965395;28;20458;-46
2022/06/04 04:45:12;;;;;;;18.37;16.23;;;18.40;82.70;;;;;;4968623;28;20458;-46
2022/06/04 04:47:42;;;;;;;18.23;16.33;;;18.40;82.70;;;;;;4964447;28;20843;-46
2022/06/04 04:50:27;;;;;;;19.47;17.03;;;18.40;82.80;;;;;;4968345;28;20564;-46
2022/06/04 04:52:55;;;;;;;18.13;16.27;;;18.50;82.70;;;;;;4964412;28;20474;-46
2022/06/04 04:55:29;;;;;;;20.33;15.97;;;18.40;83.00;;;;;;4966028;28;20553;-46
2022/06/04 04:57:55;;;;;;;20.97;17.07;;;18.50;82.90;;;;;;4951843;28;20478;-46
2022/06/04 05:00:23;;;;;;;18.93;16.93;;;18.50;83.00;;;;;;4967576;28;20506;-46
2022/06/04 05:02:50;;;;;;;18.17;16.20;;;18.50;83.10;;;;;;4967760;28;20474;-46
2022/06/04 05:05:17;;;;;;;16.40;14.80;;;18.50;83.20;;;;;;4935164;28;20549;-46
2022/06/04 05:07:44;;;;;;;15.87;14.30;;;18.60;83.30;;;;;;4965309;28;20971;-46
2022/06/04 05:10:13;;;;;;;16.50;14.77;;;18.70;83.40;;;;;;4966731;28;20884;-46
2022/06/04 05:12:40;;;;;;;17.90;16.17;;;18.70;83.50;;;;;;4965522;28;20823;-46
2022/06/04 05:15:08;;;;;;;15.27;13.70;;;18.80;83.50;;;;;;4947381;28;20464;-46
2022/06/04 05:17:34;;;;;;;16.50;14.57;;;18.80;83.60;;;;;;4967657;28;20488;-46
2022/06/04 05:20:03;;;;;;;16.67;14.10;;;18.80;83.60;;;;;;4966994;28;20589;-46
2022/06/04 05:22:30;;;;;;;16.10;14.40;;;18.90;83.70;;;;;;4951683;28;20834;-46
2022/06/04 05:24:56;;;;;;;16.77;12.70;;;18.90;83.70;;;;;;4965242;28;20486;-46
2022/06/04 05:27:23;;;;;;;13.13;12.03;;;19.00;83.80;;;;;;4965689;28;20461;-46
2022/06/04 05:29:50;;;;;;;18.70;11.30;;;19.10;83.80;;;;;;4967258;28;20547;-46
2022/06/04 05:32:16;;;;;;;13.23;10.67;;;19.10;83.70;;;;;;4945609;28;20955;-46
2022/06/04 05:34:43;;;;;;;13.17;11.90;;;19.20;83.70;;;;;;4965626;28;20470;-46
2022/06/04 05:37:10;;;;;;;10.87;9.80;;;19.30;83.70;;;;;;4965616;28;20481;-46
2022/06/04 05:39:37;;;;;;;11.17;10.03;;;19.30;83.60;;;;;;4946372;28;21021;-46
2022/06/04 05:42:05;;;;;;;8.97;8.17;;;19.40;83.10;;;;;;4966608;28;20454;-46
2022/06/04 05:44:32;;;;;;;9.53;8.67;;;19.50;82.90;;;;;;4962512;28;20671;-46
2022/06/04 05:46:59;;;;;;;11.53;8.20;;;19.50;82.50;;;;;;4952772;28;21048;-46
2022/06/04 05:49:26;;;;;;;8.90;8.00;;;19.60;81.90;;;;;;4949233;28;20541;-46
2022/06/04 05:51:53;;;;;;;8.63;7.93;;;19.70;81.90;;;;;;4968606;28;20554;-46
2022/06/04 05:54:20;;;;;;;9.00;7.63;;;19.70;81.70;;;;;;4967335;28;20458;-46
2022/06/04 05:56:49;;;;;;;8.13;7.37;;;19.70;81.50;;;;;;4965426;28;20557;-46
2022/06/04 05:59:18;;;;;;;9.87;8.97;;;19.80;81.40;;;;;;4949701;28;20489;-46
2022/06/04 06:01:46;;;;;;;11.73;9.60;;;19.90;81.00;;;;;;4966782;28;20568;-46
2022/06/04 06:04:15;;;;;;;9.77;8.87;;;20.00;81.30;;;;;;4955061;28;20447;-46
2022/06/04 06:06:45;;;;;;;10.40;9.50;;;20.00;81.10;;;;;;4968953;28;20469;-46
2022/06/04 06:09:14;;;;;;;10.53;9.63;;;20.10;81.10;;;;;;4966280;28;20492;-46
2022/06/04 06:11:42;;;;;;;12.50;11.37;;;20.10;81.10;;;;;;4969474;28;20485;-46
2022/06/04 06:14:10;;;;;;;12.57;11.30;;;20.20;81.00;;;;;;4969022;28;20493;-46
2022/06/04 06:16:40;;;;;;;14.07;12.70;;;20.30;80.70;;;;;;4950611;28;20489;-46
2022/06/04 06:19:07;;;;;;;15.07;11.40;;;20.30;80.70;;;;;;4965065;28;20498;-46
2022/06/04 06:21:35;;;;;;;13.73;12.30;;;20.50;82.80;;;;;;4966156;28;20464;-46
2022/06/04 06:24:04;;;;;;;13.27;11.93;;;20.50;80.70;;;;;;4964404;28;20450;-46
2022/06/04 06:26:34;;;;;;;13.80;10.57;;;20.60;80.00;;;;;;4966129;28;20501;-46
2022/06/04 06:29:04;;;;;;;11.20;10.00;;;20.60;79.90;;;;;;4946305;28;20608;-46
2022/06/04 06:31:32;;;;;;;10.97;9.93;;;20.60;79.50;;;;;;4967208;28;20513;-46
2022/06/04 06:34:00;;;;;;;12.23;11.07;;;20.70;79.60;;;;;;4970018;28;20470;-46
2022/06/04 06:36:28;;;;;;;11.87;10.67;;;20.70;79.40;;;;;;4974199;28;20835;-46
2022/06/04 06:38:55;;;;;;;14.13;10.00;;;20.80;79.40;;;;;;4969947;28;20497;-45
2022/06/04 06:41:24;;;;;;;11.10;10.10;;;20.80;79.30;;;;;;4950710;28;20458;-45
2022/06/04 06:43:51;;;;;;;9.90;9.00;;;20.80;79.30;;;;;;4969171;28;20462;-41
2022/06/04 06:46:23;;;;;;;11.63;10.43;;;20.80;79.20;;;;;;4948161;28;20533;-42
2022/06/04 06:48:58;;;;;;;11.23;9.93;;;20.90;78.80;;;;;;4970014;28;20894;-42
2022/06/04 06:51:32;;;;;;;11.37;10.27;;;20.80;78.90;;;;;;4969637;28;20457;-42
2022/06/04 06:53:59;;;;;;;10.93;9.80;;;20.90;78.80;;;;;;4966767;28;20881;-42
2022/06/04 06:56:30;;;;;;;12.30;11.00;;;20.90;78.50;;;;;;4969308;28;20500;-42
2022/06/04 06:58:58;;;;;;;12.97;11.70;;;20.90;78.50;;;;;;4972132;28;20469;-43
2022/06/04 07:01:26;;;;;;;12.00;10.80;;;20.90;78.60;;;;;;4967343;28;20496;-43
2022/06/04 07:03:55;;;;;;;10.93;9.90;;;20.90;78.70;;;;;;4970379;28;20520;-43
2022/06/04 07:06:32;;;;;;;10.97;10.07;;;21.00;78.70;;;;;;4951356;28;20907;-43
2022/06/04 07:09:01;;;;;;;11.27;9.90;;;21.00;78.70;;;;;;4970905;28;20473;-44
2022/06/04 07:11:28;;;;;;;10.17;9.27;;;21.00;78.80;;;;;;4947222;28;20469;-44
2022/06/04 07:13:55;;;;;;;12.47;9.97;;;21.00;78.80;;;;;;4968128;28;20867;-44
2022/06/04 07:16:22;;;;;;;11.47;10.30;;;21.00;78.80;;;;;;4960851;28;20462;-44
2022/06/04 07:18:50;;;;;;;12.23;11.03;;;21.10;78.90;;;;;;4966007;28;20874;-44
2022/06/04 07:21:18;;;;;;;11.73;10.63;;;21.10;78.90;;;;;;4950922;28;20470;-44
2022/06/04 07:23:45;;;;;;;13.17;11.97;;;21.20;78.80;;;;;;4948065;28;20474;-44
2022/06/04 07:26:12;;;;;;;11.77;10.57;;;21.20;78.50;;;;;;4947119;28;20468;-44
2022/06/04 07:28:42;;;;;;;11.27;10.17;;;21.30;78.50;;;;;;4965947;28;20454;-44
2022/06/04 07:31:11;;;;;;;12.10;10.90;;;21.30;78.50;;;;;;4962985;28;20458;-44
2022/06/04 07:33:38;;;;;;;11.03;9.93;;;21.30;78.50;;;;;;4946533;28;20965;-44
2022/06/04 07:36:05;;;;;;;12.93;9.00;;;21.30;78.20;;;;;;4967581;28;20494;-44
2022/06/04 07:38:32;;;;;;;8.63;7.83;;;21.30;77.90;;;;;;4967689;28;20460;-44
2022/06/04 07:40:59;;;;;;;11.00;8.80;;;21.40;77.90;;;;;;4943908;28;21157;-44
2022/06/04 07:43:25;;;;;;;8.13;7.43;;;21.50;77.70;;;;;;4965378;28;20495;-44
2022/06/04 07:45:52;;;;;;;8.90;8.10;;;21.60;77.70;;;;;;4946886;28;20470;-44
2022/06/04 07:48:19;;;;;;;8.10;7.37;;;21.70;77.00;;;;;;4964800;28;20850;-44
2022/06/04 07:50:55;;;;;;;8.07;7.33;;;21.90;76.40;;;;;;4965921;28;20462;-45
2022/06/04 07:53:22;;;;;;;7.77;7.07;;;22.10;76.20;;;;;;4965915;28;21646;-44
2022/06/04 07:55:48;;;;;;;9.43;7.17;;;22.20;75.80;;;;;;4963537;28;20955;-45
2022/06/04 07:58:21;;;;;;;6.60;6.00;;;22.40;75.20;;;;;;4965903;28;20472;-44
2022/06/04 08:00:55;;;;;;;6.43;5.93;;;22.50;73.90;;;;;;4962576;28;20585;-44
2022/06/04 08:03:22;;;;;;;6.20;5.70;;;22.60;73.80;;;;;;4962271;28;20464;-44
2022/06/04 08:05:52;;;;;;;6.30;5.70;;;22.80;73.20;;;;;;4963006;28;20472;-44
2022/06/04 08:08:19;;;;;;;8.63;6.47;;;23.10;71.60;;;;;;4963425;28;20935;-45
2022/06/04 08:10:47;;;;;;;7.20;6.50;;;23.20;71.40;;;;;;4960338;28;20466;-44
2022/06/04 08:13:18;;;;;;;6.90;6.27;;;23.30;71.50;;;;;;4958682;28;20840;-45
2022/06/04 08:15:45;;;;;;;7.10;6.50;;;23.30;70.90;;;;;;4968970;28;20564;-45
2022/06/04 08:18:12;;;;;;;7.37;5.90;;;23.30;70.90;;;;;;4965801;28;20982;-44
2022/06/04 08:20:43;;;;;;;7.10;6.23;;;23.40;70.90;;;;;;4958904;28;20496;-45
2022/06/04 08:23:11;;;;;;;7.03;6.43;;;23.50;71.10;;;;;;4969704;28;20464;-45
2022/06/04 08:25:40;;;;;;;6.70;6.20;;;23.60;70.40;;;;;;4967208;28;20465;-45
2022/06/04 08:28:08;;;;;;;6.57;6.07;;;23.60;69.10;;;;;;4970022;28;21098;-44
2022/06/04 08:30:35;;;;;;;6.83;6.10;;;23.70;69.50;;;;;;4969320;28;20650;-44
2022/06/04 08:33:03;;;;;;;6.20;5.60;;;23.90;69.30;;;;;;4968047;28;20469;-45
2022/06/04 08:35:31;;;;;;;7.37;6.67;;;24.20;68.90;;;;;;4950064;28;20564;-44
2022/06/04 08:38:05;;;;;;;5.93;5.53;;;24.40;67.70;;;;;;4967835;28;20457;-45
2022/06/04 08:40:38;;;;;;;5.77;5.27;;;24.60;66.90;;;;;;4945747;28;20498;-45
2022/06/04 08:43:24;;;;;;;5.53;5.03;;;24.80;66.00;;;;;;4956913;28;20465;-45
2022/06/04 08:45:51;;;;;;;4.67;4.30;;;25.10;65.00;;;;;;4950059;28;20896;-45
2022/06/04 08:48:30;;;;;;;5.63;5.13;;;25.40;64.50;;;;;;4953013;28;20996;-46
2022/06/04 08:50:58;;;;;;;5.27;4.77;;;25.70;63.70;;;;;;4936884;28;20934;-45
2022/06/04 08:53:28;;;;;;;6.10;5.50;;;25.90;62.20;;;;;;4952143;28;20471;-45
2022/06/04 08:59:18;;;;;;;5.53;4.37;;;25.90;60.80;;;;;;4955835;28;20470;-46
2022/06/04 09:01:53;;;;;;;6.20;4.87;;;25.90;60.40;;;;;;4941538;28;20492;-46
2022/06/04 09:04:42;;;;;;;4.17;3.87;;;25.80;60.60;;;;;;4965097;28;20469;-45
2022/06/04 09:07:20;;;;;;;4.23;3.93;;;25.90;60.60;;;;;;4968760;28;20457;-46
2022/06/04 09:10:03;;;;;;;4.63;4.27;;;25.90;59.80;;;;;;4957691;28;20564;-45
2022/06/04 09:12:57;;;;;;;7.50;4.30;;;25.80;59.50;;;;;;4958339;28;20473;-46
2022/06/04 09:15:31;;;;;;;4.00;3.70;;;25.80;59.90;;;;;;4961050;28;20457;-46
2022/06/04 09:18:01;;;;;;;7.47;5.20;;;25.80;60.00;;;;;;4963392;28;20460;-46
2022/06/04 09:20:34;;;;;;;5.60;5.17;;;25.70;60.40;;;;;;4963185;28;20496;-46
2022/06/04 09:23:19;;;;;;;4.63;4.33;;;25.70;60.80;;;;;;4961816;28;20475;-46
2022/06/04 09:25:59;;;;;;;4.93;4.63;;;25.60;61.30;;;;;;4942279;28;21000;-46
2022/06/04 09:28:39;;;;;;;4.40;4.20;;;25.50;61.30;;;;;;4964722;28;20517;-45
2022/06/04 09:31:30;;;;;;;4.70;4.00;;;25.40;61.20;;;;;;4930775;28;20996;-46
2022/06/04 09:34:07;;;;;;;5.37;4.97;;;25.30;61.30;;;;;;4944344;28;20461;-45
2022/06/04 09:36:38;;;;;;;5.10;4.67;;;25.30;61.50;;;;;;4966856;28;20472;-46
2022/06/04 09:39:19;;;;;;;4.90;4.50;;;25.30;61.70;;;;;;4944890;28;20476;-45
2022/06/04 09:41:51;;;;;;;7.30;4.97;;;25.20;61.60;;;;;;4957090;28;20570;-47
2022/06/04 09:44:18;;;;;;;4.53;4.20;;;25.20;61.70;;;;;;4956654;28;20950;-47
2022/06/04 09:46:48;;;;;;;5.33;4.20;;;25.20;61.40;;;;;;4961508;28;20982;-46
2022/06/04 09:49:40;;;;;;;4.10;3.73;;;25.20;61.30;;;;;;4963467;28;20465;-46
2022/06/04 09:52:29;;;;;;;4.03;3.67;;;25.10;61.40;;;;;;4959395;28;20461;-46
2022/06/04 09:55:12;;;;;;;4.97;4.57;;;25.20;61.10;;;;;;4961064;28;20500;-45
2022/06/04 09:57:39;;;;;;;4.97;4.23;;;25.10;61.20;;;;;;4951038;28;20461;-46
2022/06/04 10:00:19;;;;;;;4.10;3.80;;;25.20;61.40;;;;;;4936680;28;21032;-46
2022/06/04 10:02:59;;;;;;;5.40;4.90;;;25.20;61.70;;;;;;4952491;28;20473;-45
2022/06/04 10:05:30;;;;;;;4.80;4.40;;;25.20;61.80;;;;;;4940605;28;20458;-46
2022/06/04 10:07:57;;;;;;;5.00;4.60;;;25.20;62.40;;;;;;4941717;28;20454;-46
2022/06/04 10:10:29;;;;;;;6.03;4.40;;;25.30;62.80;;;;;;4952940;28;20488;-46
2022/06/04 10:15:47;;;;;;;5.10;4.70;;;25.50;62.30;;;;;;4955371;28;20465;-46
2022/06/04 10:18:20;;;;;;;5.60;5.10;;;25.50;61.90;;;;;;4943507;28;20914;-46
2022/06/04 10:21:00;;;;;;;5.27;4.87;;;25.60;62.00;;;;;;4956968;28;20511;-46
2022/06/04 10:23:29;;;;;;;6.23;4.30;;;25.60;61.30;;;;;;4949676;28;20491;-46
2022/06/04 10:26:17;;;;;;;5.70;5.20;;;25.60;61.40;;;;;;4955284;28;21050;-46
2022/06/04 10:29:05;;;;;;;5.10;4.60;;;25.60;62.20;;;;;;4959347;28;20829;-46
2022/06/04 10:31:53;;;;;;;5.67;5.17;;;25.70;61.80;;;;;;4957119;28;20491;-46
2022/06/04 10:34:26;;;;;;;6.87;4.63;;;25.90;60.80;;;;;;4960970;28;20458;-46
2022/06/04 10:36:53;;;;;;;5.73;5.23;;;26.10;60.60;;;;;;4959751;28;20465;-46
2022/06/04 10:39:51;;;;;;;5.67;5.17;;;26.20;60.30;;;;;;4959998;28;20469;-45
2022/06/04 10:42:24;;;;;;;7.17;4.70;;;26.30;60.20;;;;;;4958766;28;20462;-44
2022/06/04 10:45:16;;;;;;;4.53;4.13;;;26.30;59.20;;;;;;4957958;28;20549;-44
2022/06/04 10:47:42;;;;;;;5.27;4.73;;;26.20;59.70;;;;;;4954728;28;20521;-44
2022/06/04 10:50:22;;;;;;;4.97;4.57;;;26.20;59.90;;;;;;4958830;28;21197;-43
2022/06/04 10:52:56;;;;;;;5.80;4.90;;;26.20;59.70;;;;;;4958523;28;20469;-44
2022/06/04 10:55:48;;;;;;;5.10;4.70;;;26.30;59.70;;;;;;4963360;28;20483;-43
2022/06/04 10:58:28;;;;;;;5.10;4.70;;;26.30;60.50;;;;;;4962215;28;20989;-44
2022/06/04 11:01:02;;;;;;;4.57;4.17;;;26.30;60.80;;;;;;4960473;28;20982;-44
2022/06/04 11:03:45;;;;;;;6.20;4.33;;;26.30;58.80;;;;;;4963912;28;20467;-44
2022/06/04 11:06:21;;;;;;;6.73;4.90;;;26.20;57.20;;;;;;4964613;28;20461;-43
2022/06/04 11:09:03;;;;;;;4.63;4.30;;;26.20;57.90;;;;;;4962168;28;20461;-44
2022/06/04 11:12:04;;;;;;;5.07;4.67;;;26.20;58.00;;;;;;4963255;28;20469;-44
2022/06/04 11:14:41;;;;;;;6.03;5.00;;;26.20;58.60;;;;;;4956640;28;20499;-44
2022/06/04 11:17:27;;;;;;;5.17;4.67;;;26.10;58.40;;;;;;4946935;28;20465;-44
2022/06/04 11:20:05;;;;;;;4.83;4.40;;;26.20;57.90;;;;;;4964942;28;20507;-44
2022/06/04 11:22:36;;;;;;;5.60;4.97;;;26.20;58.30;;;;;;4961675;28;20834;-44
2022/06/04 11:25:14;;;;;;;15.10;6.70;;;26.20;57.20;;;;;;4946263;28;20564;-44
2022/06/04 11:27:47;;;;;;;5.53;4.70;;;26.20;57.40;;;;;;4962308;28;20459;-44
2022/06/04 11:30:17;;;;;;;10.10;5.87;;;26.20;58.20;;;;;;4946120;28;20865;-44
2022/06/04 11:33:01;;;;;;;4.80;4.40;;;26.20;57.90;;;;;;4946926;28;20475;-44
2022/06/04 11:35:49;;;;;;;7.23;4.80;;;26.30;57.30;;;;;;4945317;28;20489;-44
2022/06/04 11:38:35;;;;;;;6.33;4.80;;;26.30;57.60;;;;;;4948449;28;20467;-44
2022/06/04 11:41:20;;;;;;;4.37;4.07;;;26.30;57.70;;;;;;4959759;28;20491;-47
2022/06/04 11:44:38;;;;;;;4.70;4.30;;;26.50;58.10;;;;;;4960915;28;20900;-45
2022/06/04 11:47:20;;;;;;;5.33;4.80;;;26.50;57.20;;;;;;4921908;28;20508;-46
2022/06/04 11:50:14;;;;;;;4.93;4.27;;;26.50;55.90;;;;;;4966348;28;20493;-46
2022/06/04 11:53:13;;;;;;;4.20;3.90;;;26.50;56.40;;;;;;4969214;28;20468;-43
2022/06/04 11:55:50;;;;;;;3.93;3.30;;;26.50;55.60;;;;;;4964594;28;21050;-43
2022/06/04 11:58:46;;;;;;;3.70;3.40;;;26.50;53.80;;;;;;4962386;28;20460;-44
2022/06/04 12:01:17;;;;;;;3.90;3.60;;;26.50;54.00;;;;;;4965440;28;20504;-43
2022/06/04 12:04:04;;;;;;;4.00;3.70;;;26.60;55.20;;;;;;4965244;28;20458;-43
2022/06/04 12:06:37;;;;;;;6.57;4.10;;;26.60;54.90;;;;;;4948913;28;20532;-44
2022/06/04 12:09:18;;;;;;;3.90;3.47;;;26.60;54.70;;;;;;4947462;28;20461;-44
2022/06/04 12:11:48;;;;;;;3.93;3.57;;;26.70;55.50;;;;;;4966419;28;20477;-43
2022/06/04 12:14:14;;;;;;;3.30;3.00;;;26.70;54.10;;;;;;4947323;28;20894;-43
2022/06/04 12:17:01;;;;;;;3.57;3.27;;;26.70;53.50;;;;;;4967186;28;20588;-43
2022/06/04 12:25:46;;;;;;;3.50;3.20;;;26.50;53.30;;;;;;4962458;28;20489;-44
2022/06/04 12:28:39;;;;;;;3.33;3.13;;;26.50;54.10;;;;;;4963543;28;20497;-44
2022/06/04 12:31:06;;;;;;;4.03;3.73;;;26.50;53.20;;;;;;4964948;28;20241;-43
2022/06/04 12:33:41;;;;;;;3.03;2.83;;;26.50;53.10;;;;;;4966856;28;20469;-43
2022/06/04 12:36:10;;;;;;;3.53;3.13;;;26.50;52.60;;;;;;4964063;28;20476;-43
2022/06/04 12:38:40;;;;;;;3.87;3.37;;;26.60;52.60;;;;;;4947383;28;20520;-44
2022/06/04 12:41:09;;;;;;;3.67;3.47;;;26.70;54.00;;;;;;4966637;28;20485;-43
2022/06/04 12:43:39;;;;;;;3.53;3.23;;;26.70;53.20;;;;;;4941980;28;20462;-43
2022/06/04 12:46:29;;;;;;;3.60;3.30;;;26.60;52.80;;;;;;4951552;28;20214;-44
2022/06/04 12:48:58;;;;;;;4.30;3.13;;;26.60;52.20;;;;;;4961847;28;20465;-44
2022/06/04 12:51:41;;;;;;;2.90;2.70;;;26.70;52.20;;;;;;4964256;28;20847;-43
2022/06/04 12:54:20;;;;;;;3.20;2.90;;;26.70;52.20;;;;;;4965740;28;20470;-43
2022/06/04 12:57:05;;;;;;;4.27;2.47;;;26.80;53.40;;;;;;4955228;28;20465;-43
2022/06/04 12:59:40;;;;;;;3.00;2.80;;;26.90;52.00;;;;;;4967817;28;20618;-44
2022/06/04 13:02:27;;;;;;;2.73;2.53;;;26.90;51.60;;;;;;4962413;28;20536;-43
2022/06/04 13:05:17;;;;;;;5.50;3.13;;;26.90;51.60;;;;;;4962800;28;20472;-44
2022/06/04 13:07:55;;;;;;;3.27;3.03;;;27.00;51.80;;;;;;4961884;28;20206;-44
2022/06/04 13:10:47;;;;;;;4.93;3.43;;;26.90;51.50;;;;;;4941102;28;20484;-44
2022/06/04 13:13:33;;;;;;;3.57;3.30;;;26.90;51.10;;;;;;4961546;28;20230;-43
2022/06/04 13:16:05;;;;;;;3.63;2.47;;;26.80;51.20;;;;;;4964329;28;20465;-44
2022/06/04 13:18:35;;;;;;;3.10;2.90;;;26.80;51.40;;;;;;4965031;28;21001;-43
2022/06/04 13:21:06;;;;;;;4.43;3.00;;;26.80;51.60;;;;;;4963099;28;20226;-44
2022/06/04 13:23:49;;;;;;;3.47;3.27;;;26.70;52.00;;;;;;4961607;28;20461;-44
2022/06/04 13:26:37;;;;;;;3.50;3.20;;;26.80;52.40;;;;;;4960939;28;20874;-43